Time;durP1;ratioP1;P1;durP2;ratioP2;P2;SDS_P1;SDS_P2;PMS_P1;PMS_P2;Temp;Humidity;BMP_temperature;BMP_pressure;BME280_temperature;BME280_humidity;BME280_pressure;Samples;Min_cycle;Max_cycle;Signal;HPM_P1;HPM_P2
2022/12/27 00:02:15;;;;;;;2.60;2.40;;;;;;;5.00;100.00;100401.28;6244107;22;20016;-95
2022/12/27 00:04:40;;;;;;;0.88;0.77;;;;;;;4.99;100.00;100404.41;6217242;22;20037;-94
2022/12/27 00:07:06;;;;;;;1.02;1.02;;;;;;;5.04;100.00;100409.53;6215416;22;20008;-93
2022/12/27 00:09:32;;;;;;;2.65;2.40;;;;;;;4.82;100.00;100391.41;6194882;22;20019;-92
2022/12/27 00:11:58;;;;;;;5.43;1.85;;;;;;;4.78;100.00;100388.66;6216913;22;20012;-93
2022/12/27 00:14:24;;;;;;;2.28;2.15;;;;;;;4.71;100.00;100394.16;6215087;22;20034;-95
2022/12/27 00:16:49;;;;;;;3.70;1.40;;;;;;;4.76;100.00;100403.97;6243869;22;20011;-93
2022/12/27 00:19:15;;;;;;;3.13;2.85;;;;;;;4.81;100.00;100428.34;6219343;22;20000;-93
2022/12/27 00:21:41;;;;;;;1.40;1.30;;;;;;;4.60;100.00;100399.63;6221423;22;20057;-92
2022/12/27 00:24:07;;;;;;;3.40;2.47;;;;;;;4.67;100.00;100415.34;6240529;22;20043;-93
2022/12/27 00:26:33;;;;;;;2.00;1.90;;;;;;;4.87;100.00;100424.03;6241543;22;20432;-93
2022/12/27 00:28:59;;;;;;;1.55;1.45;;;;;;;4.78;100.00;100418.91;6219463;22;20050;-93
2022/12/27 00:31:27;;;;;;;0.60;0.60;;;;;;;4.79;100.00;100395.75;6190221;22;20323;-93
2022/12/27 00:33:54;;;;;;;1.48;1.20;;;;;;;4.89;100.00;100405.19;6219478;22;20035;-94
2022/12/27 00:36:23;;;;;;;0.70;0.70;;;;;;;4.91;100.00;100386.34;6241009;22;20411;-92
2022/12/27 00:38:50;;;;;;;0.65;0.50;;;;;;;5.12;100.00;100417.41;6193178;22;20004;-93
2022/12/27 00:41:16;;;;;;;0.65;0.65;;;;;;;5.20;100.00;100420.97;6243425;22;20011;-94
2022/12/27 00:43:42;;;;;;;0.30;0.30;;;;;;;5.09;100.00;100398.16;6190615;22;20034;-91
2022/12/27 00:46:08;;;;;;;0.75;0.75;;;;;;;5.09;100.00;100398.97;6219975;22;20011;-93
2022/12/27 00:48:35;;;;;;;0.47;0.47;;;;;;;5.16;100.00;100431.97;6194715;22;20007;-94
2022/12/27 00:51:12;;;;;;;3.30;2.25;;;;;;;4.86;100.00;100412.25;6199339;22;20008;-94
2022/12/27 00:53:38;;;;;;;0.50;0.50;;;;;;;4.91;100.00;100414.63;6224658;22;20012;-93
2022/12/27 00:56:13;;;;;;;1.80;1.70;;;;;;;5.06;100.00;100438.22;6224648;22;20351;-93
2022/12/27 00:58:38;;;;;;;1.88;1.75;;;;;;;4.78;100.00;100399.66;6225453;22;20022;-91
2022/12/27 01:01:12;;;;;;;1.15;1.13;;;;;;;5.05;100.00;100442.16;6224207;22;20011;-93
2022/12/27 01:03:38;;;;;;;0.30;0.30;;;;;;;4.75;100.00;100399.66;6199456;22;20021;-93
2022/12/27 01:06:06;;;;;;;1.52;1.42;;;;;;;5.07;100.00;100444.50;6224527;22;20094;-94
2022/12/27 01:08:31;;;;;;;0.68;0.47;;;;;;;5.01;100.00;100421.31;6199824;22;20018;-93
2022/12/27 01:10:58;;;;;;;0.13;0.13;;;;;;;5.10;100.00;100428.00;6199955;22;20035;-93
2022/12/27 01:13:26;;;;;;;0.32;0.32;;;;;;;5.00;100.00;100409.53;6226028;22;20459;-93
2022/12/27 01:15:52;;;;;;;0.47;0.47;;;;;;;5.06;100.00;100416.22;6218993;23;20126;-95
2022/12/27 01:18:17;;;;;;;2.28;2.08;;;;;;;5.14;100.00;100428.00;6194206;23;20446;-93
2022/12/27 01:20:43;;;;;;;1.35;1.25;;;;;;;5.22;100.00;100429.59;6218625;23;20008;-93
2022/12/27 01:23:08;;;;;;;7.38;1.65;;;;;;;5.14;100.00;100403.25;6194592;23;20209;-94
2022/12/27 01:25:34;;;;;;;0.30;0.30;;;;;;;5.16;100.00;100409.97;6244970;23;20015;-92
2022/12/27 01:27:59;;;;;;;0.88;0.52;;;;;;;5.41;100.00;100436.69;6194643;23;20004;-92
2022/12/27 01:30:25;;;;;;;0.40;0.40;;;;;;;5.28;100.00;100406.03;6194407;23;20016;-94
2022/12/27 01:32:51;;;;;;;0.73;0.73;;;;;;;5.47;100.00;100441.41;6194644;23;20322;-93
2022/12/27 01:35:17;;;;;;;1.65;1.20;;;;;;;5.29;100.00;100407.63;6194336;23;20012;-93
2022/12/27 01:37:42;;;;;;;0.50;0.50;;;;;;;5.31;100.00;100397.00;6193607;23;20464;-94
2022/12/27 01:40:08;;;;;;;0.75;0.75;;;;;;;5.18;100.00;100382.03;6219729;23;20030;-94
2022/12/27 01:42:52;;;;;;;0.45;0.45;;;;;;;5.33;100.00;100404.84;6195277;23;20022;-93
2022/12/27 01:45:19;;;;;;;;;;;;;;;5.35;100.00;100422.53;6223733;23;20012;-94
2022/12/27 01:48:24;;;;;;;2.03;1.35;;;;;;;5.19;100.00;100413.88;6219520;23;19925;-93
2022/12/27 01:50:58;;;;;;;1.75;1.65;;;;;;;5.13;100.00;100393.44;6209408;23;20057;-94
2022/12/27 01:53:30;;;;;;;1.35;1.13;;;;;;;5.18;100.00;100395.78;6219159;23;20085;-94
2022/12/27 01:55:59;;;;;;;0.28;0.28;;;;;;;5.08;100.00;100382.84;6216630;23;20016;-94
2022/12/27 01:58:37;;;;;;;3.75;2.00;;;;;;;5.08;100.00;100385.59;6193630;23;20008;-94
2022/12/27 02:03:47;;;;;;;1.58;1.48;;;;;;;4.88;100.00;100382.41;6277587;22;20513;-87
2022/12/27 02:06:13;;;;;;;1.48;1.38;;;;;;;5.15;100.00;100435.88;6248527;22;20390;-87
2022/12/27 02:09:07;;;;;;;1.48;1.38;;;;;;;5.20;100.00;100437.47;6277423;22;20007;-88
2022/12/27 02:11:49;;;;;;;7.93;1.85;;;;;;;5.24;100.00;100427.25;6305022;22;20085;-88
2022/12/27 02:14:21;;;;;;;4.00;2.22;;;;;;;5.24;100.00;100427.25;6255963;22;20011;-87
2022/12/27 02:16:47;;;;;;;1.25;1.15;;;;;;;5.30;100.00;100422.16;6303588;22;20011;-86
2022/12/27 02:19:22;;;;;;;1.10;1.00;;;;;;;5.22;100.00;100407.59;6277410;22;20400;-87
2022/12/27 02:21:56;;;;;;;1.35;1.27;;;;;;;5.42;100.00;100436.28;6278242;22;20012;-91
2022/12/27 02:25:21;;;;;;;4.88;2.13;;;;;;;5.36;100.00;100410.34;6278856;22;20022;-93
2022/12/27 02:27:55;;;;;;;0.68;0.57;;;;;;;5.36;100.00;100435.13;6179993;23;20021;-92
2022/12/27 02:30:21;;;;;;;0.43;0.43;;;;;;;5.26;100.00;100438.63;6181457;23;20021;-93
2022/12/27 02:33:02;;;;;;;0.45;0.45;;;;;;;5.05;100.00;100409.16;6219195;22;20306;-93
2022/12/27 02:35:34;;;;;;;2.40;2.20;;;;;;;5.29;100.00;100445.31;6252987;22;20322;-91
2022/12/27 02:38:10;;;;;;;0.52;0.52;;;;;;;5.19;100.00;100446.88;6305438;22;20023;-93
2022/12/27 02:55:26;;;;;;;0.77;0.60;;;;;;;5.14;100.00;100477.50;6277257;22;20015;-87
2022/12/27 02:58:12;;;;;;;0.57;0.57;;;;;;;5.11;100.00;100457.06;6277778;22;20012;-92
2022/12/27 03:04:10;;;;;;;1.67;1.58;;;;;;;5.09;100.00;100483.41;6249983;22;20484;-88
2022/12/27 03:06:56;;;;;;;2.13;0.90;;;;;;;5.07;100.00;100488.50;6273453;22;20018;-87
2022/12/27 03:18:07;;;;;;;0.73;0.73;;;;;;;4.83;100.00;100467.22;6273701;22;20340;-88
2022/12/27 03:26:04;;;;;;;0.65;0.65;;;;;;;4.75;100.00;100482.09;6251140;22;20035;-88
2022/12/27 03:40:26;;;;;;;0.30;0.30;;;;;;;4.77;100.00;100516.28;6129043;23;20041;-88
2022/12/27 03:43:09;;;;;;;3.55;2.60;;;;;;;4.76;100.00;100511.16;6220948;22;20016;-87
2022/12/27 03:48:58;;;;;;;1.85;1.75;;;;;;;4.76;100.00;100533.16;6224562;22;20016;-88
2022/12/27 03:51:26;;;;;;;0.68;0.68;;;;;;;4.62;100.00;100512.66;6247303;22;20077;-88
2022/12/27 03:53:56;;;;;;;1.60;1.50;;;;;;;4.67;100.00;100520.53;6273972;22;20007;-88
2022/12/27 03:56:21;;;;;;;1.70;1.00;;;;;;;4.56;100.00;100516.97;6247551;22;20035;-88
2022/12/27 03:58:47;;;;;;;5.18;1.10;;;;;;;4.55;100.00;100511.84;6246536;22;20011;-88
2022/12/27 04:01:12;;;;;;;0.22;0.22;;;;;;;4.64;100.00;100532.31;6245603;22;20110;-88
2022/12/27 04:03:38;;;;;;;0.43;0.40;;;;;;;4.56;100.00;100516.19;6247799;22;20008;-88
2022/12/27 04:06:04;;;;;;;0.85;0.85;;;;;;;4.67;100.00;100531.53;6240860;23;20019;-88
2022/12/27 04:35:51;;;;;;;0.55;0.55;;;;;;;4.42;100.00;100543.56;6241864;23;20066;-87
2022/12/27 04:38:16;;;;;;;0.40;0.40;;;;;;;4.42;100.00;100551.78;6215977;23;20378;-87
2022/12/27 04:54:56;;;;;;;1.33;1.23;;;;;;;4.22;100.00;100557.56;6242895;23;20035;-88
2022/12/27 04:57:21;;;;;;;0.90;0.88;;;;;;;4.20;100.00;100564.59;6241189;23;20012;-88
2022/12/27 05:02:31;;;;;;;1.65;1.08;;;;;;;4.03;100.00;100568.78;6240439;23;20046;-87
2022/12/27 05:04:57;;;;;;;1.23;1.13;;;;;;;3.95;100.00;100569.09;6245296;22;20007;-87
2022/12/27 05:15:36;;;;;;;1.40;1.30;;;;;;;4.09;100.00;100585.69;6224578;22;20014;-94
2022/12/27 05:18:01;;;;;;;1.17;0.80;;;;;;;4.09;100.00;100589.22;6246793;22;20019;-93
2022/12/27 05:20:27;;;;;;;0.45;0.45;;;;;;;4.05;100.00;100587.59;6220060;22;20038;-92
2022/12/27 05:25:44;;;;;;;0.90;0.90;;;;;;;4.12;100.00;100587.69;6249494;22;20011;-93
2022/12/27 05:28:12;;;;;;;3.17;0.38;;;;;;;4.11;100.00;100586.09;6243634;22;20116;-92
2022/12/27 05:30:40;;;;;;;1.10;1.08;;;;;;;4.08;100.00;100592.34;6194041;22;20434;-92
2022/12/27 05:33:05;;;;;;;1.45;0.45;;;;;;;4.17;100.00;100585.34;6243177;22;20038;-88
2022/12/27 05:35:33;;;;;;;0.82;0.82;;;;;;;4.16;100.00;100599.47;6244600;22;20007;-88
2022/12/27 05:37:59;;;;;;;0.95;0.82;;;;;;;4.11;100.00;100597.09;6222486;22;20449;-87
2022/12/27 05:40:25;;;;;;;0.30;0.30;;;;;;;4.10;100.00;100606.47;6248287;22;20004;-88
2022/12/27 05:42:51;;;;;;;0.65;0.65;;;;;;;4.08;100.00;100604.13;6247273;22;20020;-87
2022/12/27 05:45:17;;;;;;;0.75;0.75;;;;;;;3.99;100.00;100589.13;6219685;22;20033;-87
2022/12/27 05:47:42;;;;;;;0.85;0.85;;;;;;;4.01;100.00;100606.00;6244050;22;20434;-87
2022/12/27 05:50:09;;;;;;;0.65;0.65;;;;;;;3.95;100.00;100611.06;6196475;22;20031;-92
2022/12/27 05:52:34;;;;;;;2.38;1.27;;;;;;;3.88;100.00;100599.25;6245604;22;20012;-88
2022/12/27 05:55:00;;;;;;;1.95;0.80;;;;;;;3.80;100.00;100598.38;6245220;22;20482;-87
2022/12/27 05:57:25;;;;;;;1.58;1.13;;;;;;;3.87;100.00;100614.91;6247220;22;20019;-87
2022/12/27 05:59:51;;;;;;;0.95;0.80;;;;;;;3.97;100.00;100618.91;6247040;22;20006;-87
2022/12/27 06:02:17;;;;;;;0.95;0.95;;;;;;;4.08;100.00;100628.84;6247255;22;20090;-87
2022/12/27 06:04:42;;;;;;;1.45;1.38;;;;;;;4.14;100.00;100629.25;6219647;22;20015;-87
2022/12/27 06:07:12;;;;;;;1.45;1.40;;;;;;;4.21;100.00;100630.09;6244317;22;20018;-87
2022/12/27 06:09:38;;;;;;;0.57;0.32;;;;;;;3.95;100.00;100599.28;6243243;22;20220;-87
2022/12/27 06:12:04;;;;;;;1.25;0.95;;;;;;;4.19;100.00;100654.44;6271621;22;20082;-87
2022/12/27 06:14:30;;;;;;;0.20;0.20;;;;;;;4.03;100.00;100633.88;6219747;22;20095;-88
2022/12/27 06:16:55;;;;;;;1.00;0.98;;;;;;;4.19;100.00;100661.88;6219056;22;20423;-87
2022/12/27 06:19:21;;;;;;;0.77;0.75;;;;;;;4.12;100.00;100659.88;6273641;22;20450;-87
2022/12/27 06:21:46;;;;;;;0.75;0.75;;;;;;;4.18;100.00;100663.03;6247671;22;20085;-87
2022/12/27 06:24:12;;;;;;;0.17;0.17;;;;;;;4.14;100.00;100665.75;6244830;22;20016;-87
2022/12/27 06:26:37;;;;;;;1.30;1.20;;;;;;;4.19;100.00;100676.41;6244346;22;20026;-93
2022/12/27 06:29:03;;;;;;;0.55;0.32;;;;;;;4.13;100.00;100671.59;6219038;22;20054;-92
2022/12/27 06:31:28;;;;;;;0.75;0.75;;;;;;;4.23;100.00;100684.66;6195562;22;20012;-93
2022/12/27 06:33:54;;;;;;;0.82;0.82;;;;;;;4.15;100.00;100674.78;6220529;22;20015;-92
2022/12/27 06:36:25;;;;;;;0.57;0.57;;;;;;;4.32;100.00;100690.63;6221748;22;20046;-93
2022/12/27 06:38:50;;;;;;;1.80;1.50;;;;;;;4.31;100.00;100693.75;6246304;22;20015;-93
2022/12/27 06:41:17;;;;;;;0.68;0.68;;;;;;;4.34;100.00;100699.28;6246175;22;20009;-93
2022/12/27 06:43:43;;;;;;;0.70;0.70;;;;;;;4.36;100.00;100702.44;6218923;22;20007;-93
2022/12/27 06:46:11;;;;;;;0.60;0.45;;;;;;;4.40;100.00;100708.75;6219990;22;20007;-93
2022/12/27 06:48:36;;;;;;;1.65;1.55;;;;;;;4.39;100.00;100712.66;6219547;22;20154;-92
2022/12/27 06:51:06;;;;;;;0.47;0.47;;;;;;;4.41;100.00;100715.81;6219963;22;20090;-92
2022/12/27 06:53:32;;;;;;;2.03;1.92;;;;;;;4.38;100.00;100727.56;6220925;22;20008;-92
2022/12/27 06:56:07;;;;;;;1.20;1.10;;;;;;;4.38;100.00;100724.81;6246116;22;20004;-93
2022/12/27 06:58:33;;;;;;;1.55;1.48;;;;;;;4.53;100.00;100707.28;6245756;22;20007;-92
2022/12/27 07:01:07;;;;;;;0.15;0.15;;;;;;;4.69;100.00;100709.78;6245153;22;20011;-92
2022/12/27 07:03:32;;;;;;;0.63;0.63;;;;;;;4.78;100.00;100717.69;6245585;22;20099;-93
2022/12/27 07:06:01;;;;;;;2.50;2.30;;;;;;;4.78;100.00;100736.91;6245700;22;20420;-92
2022/12/27 07:08:27;;;;;;;0.43;0.43;;;;;;;4.71;100.00;100737.66;6219757;22;20012;-93
2022/12/27 07:10:52;;;;;;;2.67;1.23;;;;;;;4.72;100.00;100752.19;6219669;22;20006;-92
2022/12/27 07:13:18;;;;;;;1.45;1.40;;;;;;;4.68;100.00;100758.47;6270453;22;20453;-92
2022/12/27 07:15:43;;;;;;;0.20;0.20;;;;;;;5.06;100.00;100767.38;6194224;22;20433;-93
2022/12/27 07:18:09;;;;;;;0.10;0.10;;;;;;;5.39;100.00;100769.97;6245702;22;20034;-94
2022/12/27 07:20:35;;;;;;;1.27;0.65;;;;;;;5.77;100.00;100782.34;6220261;22;20039;-93
2022/12/27 07:23:00;;;;;;;0.55;0.55;;;;;;;5.94;100.00;100765.16;6219867;22;20046;-94
2022/12/27 07:25:26;;;;;;;0.47;0.47;;;;;;;6.08;100.00;100767.16;6221835;22;20386;-88
2022/12/27 07:27:51;;;;;;;0.63;0.30;;;;;;;6.22;100.00;100780.19;6220217;22;20019;-88
2022/12/27 07:30:17;;;;;;;0.45;0.45;;;;;;;6.37;100.00;100782.59;6246016;22;20007;-88
2022/12/27 07:32:42;;;;;;;0.30;0.15;;;;;;;6.47;100.00;100806.63;6246448;22;20012;-88
2022/12/27 07:35:08;;;;;;;0.52;0.52;;;;;;;6.53;100.00;100813.34;6246146;22;20023;-88
2022/12/27 07:37:35;;;;;;;0.82;0.82;;;;;;;6.54;100.00;100814.91;6246926;22;20039;-88
2022/12/27 07:40:02;;;;;;;1.77;1.30;;;;;;;6.52;100.00;100825.53;6221435;22;20069;-87
2022/12/27 07:42:27;;;;;;;0.40;0.40;;;;;;;6.54;100.00;100825.16;6246809;22;20054;-88
2022/12/27 07:44:53;;;;;;;0.13;0.13;;;;;;;6.50;100.00;100833.41;6245434;22;20011;-88
2022/12/27 07:47:18;;;;;;;1.08;0.68;;;;;;;6.44;100.00;100850.69;6221491;22;20012;-93
2022/12/27 07:49:44;;;;;;;1.35;0.43;;;;;;;6.20;100.00;100846.69;6247275;22;20372;-93
2022/12/27 07:52:10;;;;;;;0.63;0.63;;;;;;;6.16;100.00;100845.88;6273789;22;20004;-93
2022/12/27 07:54:35;;;;;;;1.02;0.98;;;;;;;6.13;100.00;100851.38;6274269;22;20388;-93
2022/12/27 07:57:01;;;;;;;0.45;0.45;;;;;;;6.06;100.00;100852.16;6273538;22;20015;-93
2022/12/27 07:59:26;;;;;;;0.80;0.80;;;;;;;6.08;100.00;100849.78;6246374;22;19999;-93
2022/12/27 08:02:04;;;;;;;0.70;0.70;;;;;;;6.05;100.00;100848.59;6244969;22;20142;-88
2022/12/27 08:04:30;;;;;;;0.77;0.57;;;;;;;6.04;100.00;100848.97;6249059;22;20041;-88
2022/12/27 08:07:01;;;;;;;3.42;2.40;;;;;;;6.18;100.00;100853.78;6246499;22;20007;-88
2022/12/27 08:09:32;;;;;;;1.42;1.33;;;;;;;6.27;100.00;100857.72;6246910;22;20035;-88
2022/12/27 08:11:58;;;;;;;0.85;0.85;;;;;;;6.36;100.00;100852.66;6246068;22;20465;-87
2022/12/27 08:14:23;;;;;;;0.20;0.20;;;;;;;6.38;100.00;100853.06;6272879;22;20006;-87
2022/12/27 08:16:49;;;;;;;4.97;1.10;;;;;;;6.36;100.00;100849.91;6220193;22;20016;-88
2022/12/27 08:19:15;;;;;;;0.88;0.88;;;;;;;6.29;100.00;100844.38;6245608;22;20003;-87
2022/12/27 08:21:40;;;;;;;1.73;1.13;;;;;;;6.37;100.00;100867.22;6246750;22;20011;-87
2022/12/27 08:24:06;;;;;;;0.75;0.65;;;;;;;6.35;100.00;100859.34;6246692;22;20433;-92
2022/12/27 08:26:31;;;;;;;1.48;1.38;;;;;;;6.33;100.00;100878.22;6221746;22;20468;-93
2022/12/27 08:28:57;;;;;;;2.67;1.33;;;;;;;6.32;100.00;100873.91;6220842;22;19999;-93
2022/12/27 08:31:23;;;;;;;1.50;1.38;;;;;;;6.49;100.00;100897.19;6245738;22;20012;-94
2022/12/27 08:33:49;;;;;;;2.00;1.48;;;;;;;6.52;100.00;100908.22;6196870;22;20023;-92
2022/12/27 08:36:15;;;;;;;2.75;1.63;;;;;;;6.56;100.00;100903.50;6246301;22;20426;-95
2022/12/27 08:38:41;;;;;;;2.42;2.10;;;;;;;6.61;100.00;100885.81;6246955;22;20016;-93
2022/12/27 08:41:07;;;;;;;1.52;1.45;;;;;;;6.65;100.00;100888.56;6246936;22;20015;-93
2022/12/27 08:43:33;;;;;;;1.48;1.38;;;;;;;6.66;100.00;100890.16;6273670;22;20004;-93
2022/12/27 08:46:01;;;;;;;0.55;0.55;;;;;;;6.86;100.00;100916.22;6245598;22;20031;-93
2022/12/27 08:48:26;;;;;;;0.13;0.13;;;;;;;6.87;100.00;100912.28;6246469;22;20118;-93
2022/12/27 08:50:52;;;;;;;1.58;0.63;;;;;;;6.86;100.00;100916.22;6220414;22;20039;-91
2022/12/27 08:53:18;;;;;;;1.70;1.20;;;;;;;6.82;100.00;100923.69;6243937;22;20092;-93
2022/12/27 08:55:44;;;;;;;0.50;0.50;;;;;;;6.89;100.00;100931.97;6195243;22;20007;-92
2022/12/27 08:58:10;;;;;;;0.30;0.30;;;;;;;6.85;100.00;100931.97;6245271;22;20026;-95
2022/12/27 09:00:36;;;;;;;0.65;0.50;;;;;;;6.72;100.00;100910.63;6246287;22;20058;-92
2022/12/27 09:03:02;;;;;;;1.52;1.42;;;;;;;6.68;100.00;100910.63;6220542;22;20015;-87
2022/12/27 09:05:28;;;;;;;1.45;0.25;;;;;;;6.71;100.00;100911.84;6272782;22;20062;-87
2022/12/27 09:07:53;;;;;;;0.10;0.10;;;;;;;6.85;100.00;100909.91;6245518;22;20433;-87
2022/12/27 09:10:20;;;;;;;0.00;0.00;;;;;;;6.95;100.00;100919.38;6247016;22;20007;-87
2022/12/27 09:12:46;;;;;;;0.43;0.32;;;;;;;7.04;100.00;100905.97;6247773;22;20012;-87
2022/12/27 09:15:12;;;;;;;0.00;0.00;;;;;;;7.17;100.00;100901.66;6247735;22;20078;-87
2022/12/27 09:17:37;;;;;;;1.85;0.50;;;;;;;7.34;100.00;100914.69;6247503;22;20386;-86
2022/12/27 09:20:04;;;;;;;0.00;0.00;;;;;;;7.40;100.00;100913.09;6196994;22;20454;-87
2022/12/27 09:22:30;;;;;;;1.00;0.90;;;;;;;7.37;100.00;100911.13;6222865;22;20085;-87
2022/12/27 09:24:56;;;;;;;1.65;0.70;;;;;;;7.36;100.00;100900.50;6247501;22;20012;-87
2022/12/27 09:27:21;;;;;;;0.00;0.00;;;;;;;7.40;100.00;100918.63;6220964;22;20347;-87
2022/12/27 09:29:47;;;;;;;0.28;0.28;;;;;;;7.42;100.00;100915.47;6246470;22;20011;-88
2022/12/27 09:32:12;;;;;;;0.25;0.22;;;;;;;7.45;100.00;100928.50;6221144;22;20311;-87
2022/12/27 09:34:40;;;;;;;0.20;0.20;;;;;;;7.44;100.00;100929.69;6247169;22;20011;-87
2022/12/27 09:37:06;;;;;;;0.00;0.00;;;;;;;7.56;100.00;100936.78;6197384;22;20344;-87
2022/12/27 09:39:31;;;;;;;0.38;0.38;;;;;;;7.55;100.00;100929.69;6247490;22;20014;-87
2022/12/27 09:42:10;;;;;;;0.00;0.00;;;;;;;7.66;100.00;100936.78;6222144;22;20012;-92
2022/12/27 09:44:51;;;;;;;0.30;0.30;;;;;;;7.93;100.00;100935.16;6248184;22;20023;-93
2022/12/27 09:47:30;;;;;;;0.00;0.00;;;;;;;8.16;100.00;100926.44;6220474;22;20070;-93
2022/12/27 09:50:03;;;;;;;0.90;0.85;;;;;;;8.24;100.00;100928.00;6244831;22;20012;-92
2022/12/27 09:52:54;;;;;;;0.00;0.00;;;;;;;8.08;99.28;100875.16;6244997;22;20095;-91
2022/12/27 09:55:28;;;;;;;0.28;0.28;;;;;;;8.33;93.34;100919.31;6254544;22;20495;-91
2022/12/27 09:58:02;;;;;;;0.00;0.00;;;;;;;8.21;92.69;100925.25;6244404;22;20008;-88
2022/12/27 10:00:28;;;;;;;0.45;0.45;;;;;;;8.21;95.82;100911.44;6244418;22;20036;-87
2022/12/27 10:03:03;;;;;;;0.10;0.10;;;;;;;8.37;93.37;100898.75;6244005;22;20591;-87
2022/12/27 10:05:32;;;;;;;0.00;0.00;;;;;;;8.59;91.28;100915.25;6244141;22;20011;-88
2022/12/27 10:08:07;;;;;;;0.10;0.10;;;;;;;8.53;88.05;100927.94;6244965;22;20024;-88
2022/12/27 10:10:41;;;;;;;0.15;0.15;;;;;;;8.41;84.34;100920.88;6271766;22;20011;-88
2022/12/27 10:13:19;;;;;;;0.00;0.00;;;;;;;8.33;83.78;100908.25;6243522;22;20031;-88
2022/12/27 10:15:53;;;;;;;0.10;0.10;;;;;;;8.51;82.90;100920.03;6245137;22;20014;-92
2022/12/27 10:19:01;;;;;;;0.00;0.00;;;;;;;8.60;80.82;100898.25;6245693;22;20016;-87
2022/12/27 10:21:28;;;;;;;0.00;0.00;;;;;;;8.69;75.88;100897.81;6178743;23;20092;-88
2022/12/27 10:23:58;;;;;;;0.10;0.10;;;;;;;8.80;77.29;100921.47;6227056;22;20355;-88
2022/12/27 10:26:25;;;;;;;0.10;0.10;;;;;;;8.71;78.68;100923.09;6220346;22;20016;-88
2022/12/27 10:29:00;;;;;;;0.10;0.10;;;;;;;8.73;76.74;100934.56;6219064;22;20230;-87
2022/12/27 10:31:26;;;;;;;0.10;0.10;;;;;;;8.74;76.73;100931.38;6218733;22;20453;-87
2022/12/27 10:33:52;;;;;;;33.72;1.45;;;;;;;8.76;74.88;100919.91;6218020;22;20600;-88
2022/12/27 10:36:21;;;;;;;0.88;0.82;;;;;;;8.71;71.76;100923.09;6218192;22;20050;-87
2022/12/27 10:38:47;;;;;;;0.00;0.00;;;;;;;8.81;71.69;100936.09;6218546;22;20089;-88
2022/12/27 10:41:29;;;;;;;0.10;0.10;;;;;;;8.79;67.50;100933.72;6193593;22;20430;-88
2022/12/27 10:43:54;;;;;;;0.25;0.25;;;;;;;8.81;71.29;100923.06;6243512;22;20337;-87
2022/12/27 10:46:29;;;;;;;0.03;0.03;;;;;;;8.84;69.49;100925.00;6243867;22;20026;-87
2022/12/27 10:49:00;;;;;;;0.00;0.00;;;;;;;9.00;71.37;100935.59;6243524;22;20035;-87
2022/12/27 10:51:33;;;;;;;0.00;0.00;;;;;;;9.19;64.20;100923.97;6270941;22;20046;-86
2022/12/27 10:54:05;;;;;;;0.00;0.00;;;;;;;9.41;65.86;100921.06;6243306;22;20104;-87
2022/12/27 10:56:33;;;;;;;0.00;0.00;;;;;;;9.49;65.38;100917.03;6188372;22;20473;-90
2022/12/27 10:59:21;;;;;;;0.32;0.32;;;;;;;9.43;60.51;100930.53;6250231;22;20023;-93
2022/12/27 11:02:08;;;;;;;0.00;0.00;;;;;;;9.17;59.90;100915.31;6223857;22;20016;-93
2022/12/27 11:04:34;;;;;;;0.00;0.00;;;;;;;8.97;59.96;100892.13;6207158;22;20105;-94
2022/12/27 11:07:02;;;;;;;0.00;0.00;;;;;;;9.22;62.40;100945.31;6247578;22;20015;-94
2022/12/27 11:09:48;;;;;;;0.00;0.00;;;;;;;9.03;59.74;100929.22;6222662;22;20039;-93
2022/12/27 11:12:31;;;;;;;0.00;0.00;;;;;;;9.08;61.33;100964.78;6243705;22;20026;-95
2022/12/27 11:15:00;;;;;;;0.20;0.20;;;;;;;9.06;58.36;100958.84;6197518;22;20012;-94
2022/12/27 11:17:41;;;;;;;0.10;0.10;;;;;;;8.75;58.82;100919.13;6222327;22;20003;-94
2022/12/27 11:20:11;;;;;;;0.00;0.00;;;;;;;8.93;58.46;100946.69;6195475;22;20070;-94
2022/12/27 11:22:49;;;;;;;0.25;0.20;;;;;;;8.80;59.67;100915.16;6246586;22;20034;-93
2022/12/27 11:25:15;;;;;;;0.05;0.05;;;;;;;8.60;61.05;100905.75;6195182;22;20035;-94
2022/12/27 11:27:46;;;;;;;0.00;0.00;;;;;;;8.79;59.40;100941.22;6220235;22;20062;-94
2022/12/27 11:30:31;;;;;;;0.00;0.00;;;;;;;8.77;59.58;100949.94;6194259;22;20369;-93
2022/12/27 11:33:02;;;;;;;0.00;0.00;;;;;;;8.63;59.71;100943.66;6195637;22;20016;-94
2022/12/27 11:35:27;;;;;;;0.00;0.00;;;;;;;8.77;63.49;100960.22;6218915;22;20016;-92
2022/12/27 11:37:54;;;;;;;0.00;0.00;;;;;;;8.78;61.68;100965.34;6221102;22;20048;-95
2022/12/27 11:40:22;;;;;;;0.00;0.00;;;;;;;8.58;62.87;100933.03;6195637;22;20016;-93
2022/12/27 11:42:52;;;;;;;28.33;1.10;;;;;;;8.77;60.91;100962.97;6219387;22;20418;-93
2022/12/27 11:45:17;;;;;;;0.20;0.20;;;;;;;8.68;60.37;100962.63;6219913;22;20458;-93
2022/12/27 11:48:00;;;;;;;0.38;0.38;;;;;;;8.62;60.69;100964.22;6220934;22;20015;-93
2022/12/27 11:50:25;;;;;;;0.00;0.00;;;;;;;8.65;59.32;100969.75;6244689;22;20018;-95
2022/12/27 11:53:06;;;;;;;0.00;0.00;;;;;;;8.69;59.01;100969.75;6219230;22;20307;-96
2022/12/27 11:56:02;;;;;;;0.30;0.20;;;;;;;9.02;57.28;100958.09;6220535;22;20022;-93
2022/12/27 11:58:52;;;;;;;0.10;0.10;;;;;;;9.33;53.50;100959.09;6245153;22;20058;-93
2022/12/27 12:01:39;;;;;;;0.00;0.00;;;;;;;9.41;53.85;100954.28;6269002;22;20019;-92
2022/12/27 12:04:38;;;;;;;0.00;0.00;;;;;;;9.32;53.96;100902.94;6268358;22;20040;-94
2022/12/27 12:07:35;;;;;;;0.00;0.00;;;;;;;9.70;52.27;100961.19;6197567;22;20030;-94
2022/12/27 12:10:10;;;;;;;0.10;0.10;;;;;;;9.42;51.99;100936.50;6219535;22;20445;-93
2022/12/27 12:13:07;;;;;;;0.00;0.00;;;;;;;9.56;51.80;100923.31;6243795;22;20015;-92
2022/12/27 12:15:44;;;;;;;0.08;0.08;;;;;;;10.02;50.90;100955.34;6267450;22;20020;-91
2022/12/27 12:18:53;;;;;;;0.00;0.00;;;;;;;9.73;50.73;100932.66;6241806;22;20019;-92
2022/12/27 12:21:43;;;;;;;0.30;0.30;;;;;;;9.93;49.98;100958.59;6172615;22;20019;-93
2022/12/27 12:24:32;;;;;;;0.00;0.00;;;;;;;9.72;48.16;100908.91;6269306;22;20526;-92
2022/12/27 12:27:21;;;;;;;0.20;0.20;;;;;;;9.68;50.09;100936.66;6242283;22;20461;-94
2022/12/27 12:30:07;;;;;;;0.00;0.00;;;;;;;9.62;50.50;100931.97;6243231;22;20043;-92
2022/12/27 12:32:55;;;;;;;0.35;0.35;;;;;;;9.42;49.80;100947.56;6268938;22;20023;-93
2022/12/27 12:35:49;;;;;;;0.05;0.05;;;;;;;8.99;50.39;100966.41;6217446;22;20353;-92
2022/12/27 12:38:46;;;;;;;0.00;0.00;;;;;;;8.85;49.83;100961.75;6240676;22;20050;-94
2022/12/27 12:41:44;;;;;;;0.08;0.08;;;;;;;8.70;49.40;100960.22;6240590;22;20107;-92
2022/12/27 12:44:09;;;;;;;2.35;1.08;;;;;;;8.71;50.52;100989.47;6158308;22;20469;-93
2022/12/27 12:47:06;;;;;;;0.00;0.00;;;;;;;8.56;49.18;100999.03;6216558;22;20004;-93
2022/12/27 12:49:53;;;;;;;0.00;0.00;;;;;;;8.33;48.63;101002.25;6269464;22;20095;-93
2022/12/27 12:52:47;;;;;;;0.20;0.20;;;;;;;8.30;48.62;101019.59;6241340;22;20019;-92
2022/12/27 12:55:39;;;;;;;1.75;0.90;;;;;;;8.27;49.58;101004.59;6239982;22;20016;-92
2022/12/27 12:58:25;;;;;;;1.15;1.02;;;;;;;8.03;48.85;100975.03;6241355;22;20015;-93
2022/12/27 13:01:03;;;;;;;0.00;0.00;;;;;;;8.23;51.27;101012.09;6216812;22;20346;-93
2022/12/27 13:04:01;;;;;;;0.00;0.00;;;;;;;8.10;49.85;101015.66;6218061;22;20079;-93
2022/12/27 13:06:33;;;;;;;0.32;0.20;;;;;;;7.92;50.91;101015.69;6243524;22;20034;-92
2022/12/27 13:09:21;;;;;;;0.90;0.90;;;;;;;7.89;49.86;101027.50;6269360;22;20015;-92
2022/12/27 13:12:06;;;;;;;0.00;0.00;;;;;;;7.92;50.84;101012.94;6216572;22;20016;-92
2022/12/27 13:15:09;;;;;;;0.00;0.00;;;;;;;7.94;49.72;101027.13;6270603;22;20020;-93
2022/12/27 13:17:43;;;;;;;0.00;0.00;;;;;;;7.84;51.28;101016.88;6269783;22;20094;-93
2022/12/27 13:20:21;;;;;;;0.32;0.32;;;;;;;7.72;49.47;101034.63;6242296;22;20074;-93
2022/12/27 13:22:55;;;;;;;0.00;0.00;;;;;;;7.77;48.34;101038.94;6218476;22;20345;-92
2022/12/27 13:25:27;;;;;;;0.00;0.00;;;;;;;7.78;48.94;101046.06;6242766;22;20007;-91
2022/12/27 13:28:07;;;;;;;0.00;0.00;;;;;;;7.48;48.80;101011.31;6243035;22;20016;-92
2022/12/27 13:30:41;;;;;;;0.10;0.10;;;;;;;7.51;49.59;101029.06;6270189;22;20082;-93
2022/12/27 13:33:25;;;;;;;0.00;0.00;;;;;;;7.68;51.68;101052.38;6242989;22;20035;-92
2022/12/27 13:35:54;;;;;;;;;;;;;;;7.67;50.87;101050.78;6244033;22;20064;-92